Time;durP1;ratioP1;P1;durP2;ratioP2;P2;SDS_P1;SDS_P2;PMS_P1;PMS_P2;Temp;Humidity;BMP_temperature;BMP_pressure;BME280_temperature;BME280_humidity;BME280_pressure;Samples;Min_cycle;Max_cycle;Signal;HPM_P1;HPM_P2
2021/06/16 00:00:49;;;;;;;9.60;6.80;;;15.50;99.90;;;;;;5030088;28;20041;-73
2021/06/16 00:03:15;;;;;;;7.00;5.75;;;15.40;99.90;;;;;;5030000;28;20148;-74
2021/06/16 00:05:41;;;;;;;8.63;6.72;;;15.40;99.90;;;;;;5029979;28;20071;-73
2021/06/16 00:08:06;;;;;;;8.63;6.57;;;15.40;99.90;;;;;;5012253;28;20496;-74
2021/06/16 00:10:33;;;;;;;8.45;6.57;;;15.40;99.90;;;;;;5029950;28;20036;-73
2021/06/16 00:13:00;;;;;;;8.75;5.72;;;15.40;99.90;;;;;;5011635;28;20056;-73
2021/06/16 00:15:38;;;;;;;10.30;6.85;;;15.40;99.90;;;;;;5029786;28;20034;-74
2021/06/16 00:18:05;;;;;;;9.93;6.25;;;15.30;99.90;;;;;;5030014;28;20033;-74
2021/06/16 00:20:31;;;;;;;7.82;6.30;;;15.30;99.90;;;;;;5029797;28;20028;-74
2021/06/16 00:22:57;;;;;;;7.55;5.97;;;15.30;99.90;;;;;;5011907;28;20033;-73
2021/06/16 00:25:24;;;;;;;9.15;7.28;;;15.20;99.90;;;;;;5029659;28;20039;-74
2021/06/16 00:27:50;;;;;;;11.35;6.60;;;15.20;99.90;;;;;;5030801;28;20026;-73
2021/06/16 00:30:19;;;;;;;8.02;6.25;;;15.10;99.90;;;;;;5011922;28;20075;-74
2021/06/16 00:32:44;;;;;;;8.93;6.75;;;15.10;99.90;;;;;;5029500;28;20462;-73
2021/06/16 00:35:12;;;;;;;7.72;6.65;;;15.00;99.90;;;;;;5029648;28;20053;-74
2021/06/16 00:37:38;;;;;;;10.20;7.03;;;15.00;99.90;;;;;;5029597;28;20092;-74
2021/06/16 00:40:12;;;;;;;8.93;6.70;;;14.90;99.90;;;;;;5029682;28;20486;-74
2021/06/16 00:42:37;;;;;;;8.75;6.78;;;14.90;99.90;;;;;;5011879;28;20026;-74
2021/06/16 00:45:08;;;;;;;10.98;7.72;;;14.90;99.90;;;;;;5030124;28;20074;-74
2021/06/16 00:47:34;;;;;;;10.82;6.88;;;14.80;99.90;;;;;;5016636;28;20065;-73
2021/06/16 00:50:00;;;;;;;10.82;6.72;;;14.80;99.90;;;;;;5016956;28;20025;-73
2021/06/16 00:52:25;;;;;;;11.32;7.07;;;14.80;99.90;;;;;;5016909;28;20029;-73
2021/06/16 00:54:51;;;;;;;9.43;6.60;;;14.80;99.90;;;;;;5033505;28;20037;-73
2021/06/16 00:57:18;;;;;;;12.43;6.40;;;14.70;99.90;;;;;;5016551;28;20021;-73
2021/06/16 01:00:12;;;;;;;8.65;6.30;;;14.60;99.90;;;;;;5030444;28;20021;-73
2021/06/16 01:03:05;;;;;;;11.85;6.80;;;14.60;99.90;;;;;;5030353;28;20025;-74
2021/06/16 01:05:47;;;;;;;8.45;6.30;;;14.50;99.90;;;;;;5030962;28;20030;-73
2021/06/16 01:08:18;;;;;;;9.67;7.43;;;14.50;99.90;;;;;;5033169;28;20021;-74
2021/06/16 01:10:47;;;;;;;10.40;6.57;;;14.50;99.90;;;;;;5015860;28;20029;-74
2021/06/16 01:13:33;;;;;;;7.30;6.10;;;14.50;99.90;;;;;;5012583;28;20036;-73
2021/06/16 01:16:05;;;;;;;8.55;6.30;;;14.50;99.90;;;;;;5029843;28;20052;-73
2021/06/16 01:18:35;;;;;;;8.98;6.43;;;14.40;99.90;;;;;;5011643;28;20030;-74
2021/06/16 01:21:02;;;;;;;7.55;6.30;;;14.40;99.90;;;;;;5029183;28;20359;-74
2021/06/16 01:23:49;;;;;;;9.73;6.88;;;14.30;99.90;;;;;;5027375;23;20132;-75
2021/06/16 01:26:30;;;;;;;10.93;7.18;;;14.30;99.90;;;;;;5014210;28;20029;-74
2021/06/16 01:29:21;;;;;;;9.82;7.10;;;14.30;99.90;;;;;;5015420;28;20033;-75
2021/06/16 01:31:49;;;;;;;11.45;7.25;;;14.30;99.90;;;;;;5032503;28;20037;-75
2021/06/16 01:34:20;;;;;;;10.20;7.40;;;14.20;99.90;;;;;;5033041;28;20053;-75
2021/06/16 01:36:47;;;;;;;13.00;8.02;;;14.20;99.90;;;;;;5033006;28;20014;-75
2021/06/16 01:39:16;;;;;;;11.95;7.35;;;14.30;99.90;;;;;;5033265;28;20041;-75
2021/06/16 01:41:43;;;;;;;8.77;7.00;;;14.30;99.90;;;;;;5015167;28;20026;-75
2021/06/16 01:44:11;;;;;;;8.95;6.28;;;14.30;99.90;;;;;;5032977;28;20056;-75
2021/06/16 01:46:38;;;;;;;9.27;6.47;;;14.30;99.90;;;;;;5015109;28;20029;-75
2021/06/16 01:49:05;;;;;;;8.48;7.05;;;14.20;99.90;;;;;;5015074;28;20038;-75
2021/06/16 01:51:31;;;;;;;13.10;7.43;;;14.10;99.90;;;;;;5032640;28;20030;-74
2021/06/16 01:53:58;;;;;;;11.15;7.78;;;14.10;99.90;;;;;;5014911;28;20021;-74
2021/06/16 01:56:26;;;;;;;11.85;7.25;;;14.10;99.90;;;;;;5032915;28;20378;-74
2021/06/16 01:58:53;;;;;;;8.60;6.80;;;14.10;99.90;;;;;;5032612;28;20037;-75
2021/06/16 02:01:22;;;;;;;9.18;7.85;;;14.10;99.90;;;;;;5032524;28;20034;-74
2021/06/16 02:03:48;;;;;;;13.98;8.25;;;14.00;99.90;;;;;;5014775;28;20044;-74
2021/06/16 02:06:19;;;;;;;13.85;8.73;;;14.00;99.90;;;;;;5014787;28;20041;-75
2021/06/16 02:08:47;;;;;;;12.48;8.82;;;14.00;99.90;;;;;;5032758;28;20439;-75
2021/06/16 02:11:18;;;;;;;9.63;8.10;;;14.00;99.90;;;;;;5014711;28;20076;-74
2021/06/16 02:13:49;;;;;;;11.95;8.65;;;14.00;99.90;;;;;;5032643;28;20029;-74
2021/06/16 02:16:21;;;;;;;13.80;8.88;;;14.00;99.90;;;;;;5014913;28;20402;-74
2021/06/16 02:18:51;;;;;;;11.57;7.50;;;14.00;99.90;;;;;;5032637;28;20018;-74
2021/06/16 02:21:17;;;;;;;10.18;7.15;;;13.90;99.90;;;;;;5014590;28;20026;-74
2021/06/16 02:23:43;;;;;;;12.07;8.32;;;13.90;99.90;;;;;;5032910;28;20033;-74
2021/06/16 02:26:11;;;;;;;11.23;7.95;;;13.80;99.90;;;;;;5032149;28;20030;-74
2021/06/16 02:28:37;;;;;;;15.98;9.90;;;13.80;99.90;;;;;;5032082;28;20017;-75
2021/06/16 02:31:03;;;;;;;12.70;9.38;;;13.80;99.90;;;;;;5032071;28;20398;-74
2021/06/16 02:33:29;;;;;;;12.65;9.23;;;13.70;99.90;;;;;;5033711;28;20036;-74
2021/06/16 02:35:55;;;;;;;13.43;9.70;;;13.70;99.90;;;;;;5031673;28;20026;-74
2021/06/16 02:38:23;;;;;;;11.70;8.63;;;13.70;99.90;;;;;;5031927;28;20013;-74
2021/06/16 02:40:50;;;;;;;11.07;8.07;;;13.60;99.90;;;;;;5031779;28;20032;-74
2021/06/16 02:43:18;;;;;;;11.73;8.57;;;13.60;99.90;;;;;;5031716;28;20104;-75
2021/06/16 02:45:44;;;;;;;16.08;9.25;;;13.60;99.90;;;;;;5013982;28;20032;-74
2021/06/16 02:48:12;;;;;;;11.20;7.90;;;13.50;99.90;;;;;;5031958;28;20034;-74
2021/06/16 02:50:40;;;;;;;11.00;8.50;;;13.50;99.90;;;;;;5031677;28;20022;-74
2021/06/16 02:53:16;;;;;;;11.25;8.80;;;13.50;99.90;;;;;;5031541;28;20025;-74
2021/06/16 02:55:43;;;;;;;15.02;9.50;;;13.40;99.90;;;;;;5031536;28;20030;-74
2021/06/16 02:58:10;;;;;;;12.80;9.50;;;13.40;99.90;;;;;;5031675;28;20018;-74
2021/06/16 03:00:36;;;;;;;12.13;9.10;;;13.40;99.90;;;;;;5013730;28;20061;-74
2021/06/16 03:03:04;;;;;;;12.20;9.27;;;13.40;99.90;;;;;;5013699;28;20398;-74
2021/06/16 03:05:30;;;;;;;12.60;9.15;;;13.40;99.90;;;;;;5013673;28;20032;-74
2021/06/16 03:07:59;;;;;;;12.30;8.38;;;13.40;99.90;;;;;;5013601;28;20383;-75
2021/06/16 03:10:27;;;;;;;12.43;9.07;;;13.40;99.90;;;;;;5031873;28;20104;-74
2021/06/16 03:12:55;;;;;;;12.25;8.65;;;13.40;99.90;;;;;;5013474;28;20029;-74
2021/06/16 03:15:22;;;;;;;15.88;10.45;;;13.40;99.90;;;;;;5031417;28;20028;-74
2021/06/16 03:17:48;;;;;;;12.35;8.48;;;13.40;99.90;;;;;;5013441;28;20029;-74
2021/06/16 03:20:19;;;;;;;12.45;9.23;;;13.30;99.90;;;;;;5031407;28;20018;-74
2021/06/16 03:22:46;;;;;;;14.25;8.32;;;13.30;99.90;;;;;;5031003;28;20033;-74
2021/06/16 03:25:13;;;;;;;14.10;8.38;;;13.30;99.90;;;;;;5013320;28;20494;-74
2021/06/16 03:27:39;;;;;;;14.00;7.90;;;13.30;99.90;;;;;;5030924;28;20025;-74
2021/06/16 03:30:07;;;;;;;12.60;8.82;;;13.30;99.90;;;;;;5031206;28;20029;-75
2021/06/16 03:32:33;;;;;;;12.52;8.32;;;13.30;99.90;;;;;;5030797;28;20447;-74
2021/06/16 03:34:59;;;;;;;12.10;8.27;;;13.30;99.90;;;;;;5031042;28;20025;-74
2021/06/16 03:37:25;;;;;;;13.57;8.82;;;13.30;99.90;;;;;;5013062;28;20052;-74
2021/06/16 03:39:54;;;;;;;11.85;8.25;;;13.40;99.90;;;;;;5013024;28;20041;-75
2021/06/16 03:42:20;;;;;;;12.63;8.13;;;13.40;99.90;;;;;;5012900;28;20033;-74
2021/06/16 03:44:47;;;;;;;10.18;7.22;;;13.50;99.90;;;;;;5030799;28;20100;-74
2021/06/16 03:47:15;;;;;;;11.95;8.20;;;13.50;99.90;;;;;;5012347;28;20433;-75
2021/06/16 03:49:43;;;;;;;12.55;7.68;;;13.50;99.90;;;;;;5012578;28;20047;-74
2021/06/16 03:52:11;;;;;;;9.90;7.22;;;13.60;99.90;;;;;;5030536;28;20026;-74
2021/06/16 03:54:38;;;;;;;9.30;7.47;;;13.70;99.90;;;;;;5030513;28;20033;-74
2021/06/16 03:57:05;;;;;;;10.52;7.43;;;13.80;99.90;;;;;;5030462;28;20021;-74
2021/06/16 03:59:31;;;;;;;10.68;7.85;;;13.80;99.90;;;;;;5030498;28;20024;-74
2021/06/16 04:01:57;;;;;;;11.50;7.07;;;13.90;99.90;;;;;;5030356;28;20026;-74
2021/06/16 04:04:23;;;;;;;8.75;6.78;;;13.90;99.90;;;;;;5013730;28;20052;-74
2021/06/16 04:06:49;;;;;;;8.48;6.30;;;14.00;99.90;;;;;;5013031;28;20502;-75
2021/06/16 04:09:15;;;;;;;10.68;6.78;;;14.10;99.90;;;;;;5030344;28;20036;-75
2021/06/16 04:11:42;;;;;;;8.23;6.32;;;14.20;99.90;;;;;;5030231;28;20025;-74
2021/06/16 04:14:08;;;;;;;8.95;6.75;;;14.40;99.90;;;;;;5012716;28;20367;-75
2021/06/16 04:16:34;;;;;;;11.88;8.20;;;14.50;99.90;;;;;;5012450;28;20017;-75
2021/06/16 04:18:59;;;;;;;13.48;7.43;;;14.60;99.90;;;;;;5030205;28;20022;-75
2021/06/16 04:21:25;;;;;;;12.52;8.55;;;14.70;99.90;;;;;;5030201;28;20559;-75
2021/06/16 04:23:52;;;;;;;14.48;9.77;;;14.90;99.90;;;;;;5012248;28;20045;-75
2021/06/16 04:26:20;;;;;;;16.98;10.52;;;15.00;99.90;;;;;;5030132;28;20474;-75
2021/06/16 04:28:46;;;;;;;14.48;10.52;;;15.10;99.90;;;;;;5029948;28;20022;-75
2021/06/16 04:31:12;;;;;;;12.48;9.90;;;15.20;99.90;;;;;;5012114;28;20136;-74
2021/06/16 04:33:38;;;;;;;15.73;10.63;;;15.30;99.90;;;;;;5029785;28;20021;-75
2021/06/16 04:36:05;;;;;;;14.40;10.35;;;15.40;99.90;;;;;;5012039;28;20486;-75
2021/06/16 04:38:31;;;;;;;14.80;10.55;;;15.50;99.90;;;;;;5012013;28;20029;-75
2021/06/16 04:40:57;;;;;;;15.45;10.65;;;15.60;99.90;;;;;;5011976;28;20071;-75
2021/06/16 04:43:23;;;;;;;16.52;11.32;;;15.70;99.90;;;;;;5011817;28;20057;-75
2021/06/16 04:45:48;;;;;;;15.85;10.45;;;15.70;99.90;;;;;;5029644;28;20060;-75
2021/06/16 04:48:14;;;;;;;20.25;11.52;;;15.80;99.90;;;;;;5029575;28;20490;-75
2021/06/16 04:50:40;;;;;;;19.48;12.40;;;15.90;99.90;;;;;;5011973;28;20558;-75
2021/06/16 04:53:05;;;;;;;17.98;11.57;;;15.90;99.90;;;;;;5011737;28;20037;-75
2021/06/16 04:55:31;;;;;;;20.73;13.13;;;16.00;99.90;;;;;;5011783;28;20084;-75
2021/06/16 04:57:57;;;;;;;21.02;12.00;;;16.10;99.90;;;;;;5029450;28;20017;-75
2021/06/16 05:00:23;;;;;;;19.92;12.48;;;16.20;99.90;;;;;;5029292;28;20044;-75
2021/06/16 05:02:55;;;;;;;15.63;11.48;;;16.30;99.90;;;;;;5029402;28;20538;-75
2021/06/16 05:05:25;;;;;;;14.57;10.80;;;16.40;99.90;;;;;;5029678;28;20032;-75
2021/06/16 05:07:50;;;;;;;22.10;11.82;;;16.50;99.90;;;;;;5029269;28;20033;-75
2021/06/16 05:10:16;;;;;;;20.48;12.73;;;16.60;99.90;;;;;;5029722;28;20024;-75
2021/06/16 05:12:43;;;;;;;20.38;12.10;;;16.70;99.90;;;;;;5011526;28;20029;-75
2021/06/16 05:15:10;;;;;;;22.13;12.93;;;16.80;99.90;;;;;;5029462;28;20025;-75
2021/06/16 05:17:37;;;;;;;25.02;15.55;;;16.80;99.90;;;;;;5029677;28;20048;-75
2021/06/16 05:20:04;;;;;;;36.80;22.17;;;17.00;99.90;;;;;;5011502;28;20064;-75
2021/06/16 05:22:29;;;;;;;36.72;25.48;;;17.10;99.90;;;;;;5029094;28;20112;-75
2021/06/16 05:24:55;;;;;;;31.10;21.13;;;17.30;99.90;;;;;;5029213;28;20056;-75
2021/06/16 05:27:21;;;;;;;25.63;17.95;;;17.40;99.90;;;;;;5029407;28;20082;-75
2021/06/16 05:29:46;;;;;;;21.60;15.25;;;17.50;99.90;;;;;;5029468;28;20033;-75
2021/06/16 05:32:13;;;;;;;19.13;13.63;;;17.60;99.90;;;;;;5011389;28;20057;-75
2021/06/16 05:34:39;;;;;;;15.77;10.48;;;17.70;99.90;;;;;;5029331;28;20035;-75
2021/06/16 05:37:08;;;;;;;12.48;9.70;;;17.90;99.90;;;;;;5029099;28;20555;-75
2021/06/16 05:39:34;;;;;;;13.35;8.48;;;18.10;99.90;;;;;;5029082;28;20025;-74
2021/06/16 05:42:00;;;;;;;10.68;7.78;;;18.20;99.90;;;;;;5029052;28;20091;-75
2021/06/16 05:44:26;;;;;;;12.68;8.02;;;18.40;99.90;;;;;;5029113;28;20029;-75
2021/06/16 05:46:51;;;;;;;8.32;6.45;;;18.50;99.90;;;;;;5028967;28;20037;-75
2021/06/16 05:49:17;;;;;;;11.75;9.15;;;18.60;99.90;;;;;;5029281;28;20025;-75
2021/06/16 05:51:42;;;;;;;13.40;8.77;;;18.80;99.90;;;;;;5011331;28;20025;-75
2021/06/16 05:54:11;;;;;;;17.63;10.70;;;19.00;99.90;;;;;;5011231;28;20030;-75
2021/06/16 05:56:38;;;;;;;13.18;9.82;;;19.10;99.90;;;;;;5011206;28;20021;-75
2021/06/16 05:59:04;;;;;;;17.27;11.55;;;19.20;99.90;;;;;;5011244;28;20029;-75
2021/06/16 06:01:31;;;;;;;12.15;9.23;;;19.30;99.90;;;;;;5011086;28;20025;-75
2021/06/16 06:03:56;;;;;;;17.70;11.60;;;19.40;99.90;;;;;;5028813;28;20025;-75
2021/06/16 06:06:22;;;;;;;17.05;10.65;;;19.50;99.90;;;;;;5011230;28;20076;-75
2021/06/16 06:08:47;;;;;;;19.80;13.25;;;19.60;99.90;;;;;;5011244;28;20022;-75
2021/06/16 06:11:13;;;;;;;19.08;12.00;;;19.70;99.90;;;;;;5030309;28;20025;-75
2021/06/16 06:13:38;;;;;;;17.48;12.15;;;19.80;99.90;;;;;;5032362;28;20371;-75
2021/06/16 06:16:04;;;;;;;18.27;11.85;;;19.90;99.90;;;;;;5032297;28;20025;-75
2021/06/16 06:18:30;;;;;;;15.85;10.55;;;20.00;99.90;;;;;;5032310;28;20028;-75
2021/06/16 06:20:56;;;;;;;16.92;10.23;;;20.00;99.90;;;;;;5014797;28;20013;-75
2021/06/16 06:23:21;;;;;;;17.13;9.90;;;20.00;99.90;;;;;;5032390;28;20037;-75
2021/06/16 06:25:47;;;;;;;17.10;9.88;;;20.10;99.90;;;;;;5032487;28;20033;-75
2021/06/16 06:28:12;;;;;;;18.33;10.82;;;20.20;99.90;;;;;;5033563;28;20028;-75
2021/06/16 06:30:38;;;;;;;16.65;9.88;;;20.30;99.90;;;;;;5033862;28;20029;-75
2021/06/16 06:33:04;;;;;;;21.38;10.10;;;20.50;99.90;;;;;;5032201;28;20087;-75
2021/06/16 06:35:30;;;;;;;15.43;8.43;;;20.60;99.90;;;;;;5014388;28;20044;-75
2021/06/16 06:37:55;;;;;;;16.95;9.48;;;20.80;99.90;;;;;;5032026;28;20018;-75
2021/06/16 06:40:21;;;;;;;18.83;9.80;;;20.90;99.90;;;;;;5014297;28;20028;-75
2021/06/16 06:42:46;;;;;;;22.33;9.38;;;21.10;99.90;;;;;;5031816;28;20022;-75
2021/06/16 06:45:12;;;;;;;22.85;9.00;;;21.20;99.90;;;;;;5014132;28;20041;-75
2021/06/16 06:47:38;;;;;;;13.18;8.80;;;21.30;99.90;;;;;;5032123;28;20025;-75
2021/06/16 06:50:11;;;;;;;14.43;7.55;;;21.50;99.90;;;;;;5032069;28;20528;-75
2021/06/16 06:52:37;;;;;;;10.88;5.90;;;21.70;99.90;;;;;;5031691;28;20025;-75
2021/06/16 06:55:03;;;;;;;13.60;6.18;;;21.60;99.90;;;;;;5014103;28;20558;-75
2021/06/16 06:57:29;;;;;;;13.40;6.18;;;21.70;99.90;;;;;;5031657;28;20018;-75
2021/06/16 06:59:54;;;;;;;11.10;5.53;;;21.70;99.90;;;;;;5013902;28;20398;-76
2021/06/16 07:02:20;;;;;;;10.13;6.28;;;21.80;99.90;;;;;;5031447;28;20040;-75
2021/06/16 07:04:45;;;;;;;8.68;4.93;;;21.90;99.90;;;;;;5031789;28;20029;-75
2021/06/16 07:07:11;;;;;;;9.00;4.15;;;22.10;99.90;;;;;;5031713;28;20036;-75
2021/06/16 07:09:36;;;;;;;8.90;4.40;;;22.20;99.90;;;;;;5031519;28;20037;-75
2021/06/16 07:12:02;;;;;;;9.68;4.63;;;22.50;99.90;;;;;;5013861;28;20022;-75
2021/06/16 07:14:28;;;;;;;9.77;4.93;;;22.80;99.90;;;;;;5031214;28;20032;-75
2021/06/16 07:16:54;;;;;;;8.65;4.05;;;22.90;99.90;;;;;;5013767;28;20028;-75
2021/06/16 07:19:19;;;;;;;7.35;4.47;;;23.00;99.90;;;;;;5014108;28;20025;-75
2021/06/16 07:21:45;;;;;;;7.10;4.53;;;23.10;98.70;;;;;;5031226;28;20029;-75
2021/06/16 07:24:11;;;;;;;5.95;3.83;;;23.30;98.90;;;;;;5055207;22;20041;-74
2021/06/16 07:26:37;;;;;;;7.63;4.22;;;23.50;97.80;;;;;;5031063;28;20033;-74
2021/06/16 07:29:02;;;;;;;8.95;4.90;;;23.70;97.00;;;;;;5013213;28;20021;-74
2021/06/16 07:31:28;;;;;;;8.02;4.53;;;23.80;94.90;;;;;;5031215;28;20101;-74
2021/06/16 07:33:54;;;;;;;9.43;4.28;;;23.70;92.40;;;;;;5030824;28;20028;-74
2021/06/16 07:36:19;;;;;;;6.40;3.88;;;23.80;91.10;;;;;;5012982;28;20029;-74
2021/06/16 07:38:45;;;;;;;8.80;4.38;;;23.90;92.10;;;;;;5013123;28;20017;-76
2021/06/16 07:41:11;;;;;;;8.05;4.50;;;24.10;92.60;;;;;;5013043;28;20046;-74
2021/06/16 07:43:36;;;;;;;10.48;4.10;;;24.20;92.70;;;;;;5012971;28;20026;-75
2021/06/16 07:46:02;;;;;;;7.57;4.20;;;24.40;91.50;;;;;;5030693;28;20025;-74
2021/06/16 07:48:27;;;;;;;8.93;3.85;;;24.50;91.30;;;;;;5030723;28;20033;-75
2021/06/16 07:50:53;;;;;;;6.88;3.25;;;24.70;91.40;;;;;;5030569;28;20029;-74
2021/06/16 07:53:20;;;;;;;8.00;3.60;;;24.90;89.70;;;;;;5030356;28;20187;-74
2021/06/16 07:55:45;;;;;;;5.78;3.50;;;24.90;89.50;;;;;;5030354;28;20057;-74
2021/06/16 07:58:12;;;;;;;5.70;3.78;;;25.30;87.50;;;;;;5030391;28;20053;-74
2021/06/16 08:00:37;;;;;;;4.82;3.10;;;25.50;85.50;;;;;;5030782;28;20022;-75
2021/06/16 08:03:04;;;;;;;3.50;2.65;;;25.60;81.80;;;;;;5012713;28;20026;-75
2021/06/16 08:05:29;;;;;;;6.32;2.92;;;25.90;81.50;;;;;;5030328;28;20060;-75
2021/06/16 08:07:55;;;;;;;4.93;2.65;;;26.10;76.70;;;;;;5030330;28;20036;-75
2021/06/16 08:10:21;;;;;;;5.05;2.90;;;26.20;69.40;;;;;;5030402;28;20503;-75
2021/06/16 08:12:47;;;;;;;3.53;2.35;;;26.00;68.70;;;;;;5012453;28;20412;-75
2021/06/16 08:15:13;;;;;;;4.80;2.65;;;26.50;68.60;;;;;;5012444;28;20026;-75
2021/06/16 08:17:39;;;;;;;2.80;2.50;;;26.70;67.80;;;;;;5012334;28;20080;-75
2021/06/16 08:20:06;;;;;;;3.80;2.53;;;27.00;67.30;;;;;;5012307;28;20029;-75
2021/06/16 08:22:31;;;;;;;6.07;2.83;;;27.30;68.00;;;;;;5029566;28;20057;-76
2021/06/16 08:25:00;;;;;;;5.28;2.60;;;27.60;63.80;;;;;;5030266;28;20053;-76
2021/06/16 08:27:26;;;;;;;5.65;2.47;;;27.60;59.80;;;;;;5012247;28;20022;-76
2021/06/16 08:29:51;;;;;;;6.10;2.80;;;27.70;58.60;;;;;;5029995;28;20052;-75
2021/06/16 08:32:17;;;;;;;5.65;2.58;;;27.80;57.90;;;;;;5012060;28;20391;-76
2021/06/16 08:34:43;;;;;;;5.13;2.63;;;28.00;58.00;;;;;;5011599;28;20036;-75
2021/06/16 08:37:08;;;;;;;8.63;3.78;;;28.00;57.90;;;;;;5011986;28;20028;-76
2021/06/16 08:39:34;;;;;;;4.22;2.53;;;27.90;57.90;;;;;;5029607;28;20017;-75
2021/06/16 08:42:00;;;;;;;4.72;2.63;;;28.10;58.50;;;;;;5029551;28;20021;-77
2021/06/16 08:44:26;;;;;;;5.38;3.30;;;28.10;55.90;;;;;;5029441;28;20490;-75
2021/06/16 08:46:53;;;;;;;6.07;3.13;;;28.20;57.80;;;;;;5029477;28;20032;-75
2021/06/16 08:49:18;;;;;;;6.93;3.08;;;28.40;57.50;;;;;;5011909;28;20032;-75
2021/06/16 08:51:44;;;;;;;6.75;3.15;;;28.60;56.90;;;;;;5029598;28;20025;-75
2021/06/16 08:54:10;;;;;;;6.22;3.13;;;28.80;55.20;;;;;;5011743;28;20044;-75
2021/06/16 08:56:36;;;;;;;7.45;3.42;;;29.00;54.60;;;;;;5029836;28;20025;-75
2021/06/16 08:59:02;;;;;;;8.38;4.10;;;29.00;52.50;;;;;;5011781;28;20179;-75
2021/06/16 09:01:27;;;;;;;4.72;3.65;;;28.90;54.10;;;;;;5029522;28;20555;-75
2021/06/16 09:03:53;;;;;;;5.35;3.72;;;29.00;55.00;;;;;;5029341;28;20096;-75
2021/06/16 09:06:19;;;;;;;7.10;3.70;;;29.10;53.20;;;;;;5012198;28;20415;-75
2021/06/16 09:08:57;;;;;;;6.50;3.70;;;29.00;53.90;;;;;;5011782;28;20029;-75
2021/06/16 09:11:24;;;;;;;5.15;3.10;;;29.50;54.30;;;;;;5029790;28;20032;-75
2021/06/16 09:13:50;;;;;;;5.28;2.97;;;29.90;54.60;;;;;;5029299;28;20609;-75
2021/06/16 09:16:30;;;;;;;3.17;2.45;;;30.40;52.60;;;;;;5029299;28;20029;-75
2021/06/16 09:18:58;;;;;;;4.13;2.72;;;30.80;51.90;;;;;;5029290;28;20021;-75
2021/06/16 09:21:38;;;;;;;5.53;2.97;;;30.80;48.50;;;;;;5029202;28;20021;-76
2021/06/16 09:24:08;;;;;;;6.25;3.10;;;30.90;47.30;;;;;;5029141;28;20037;-75
2021/06/16 09:26:35;;;;;;;4.47;2.80;;;31.00;47.40;;;;;;5011498;28;20022;-75
2021/06/16 09:29:01;;;;;;;3.58;2.60;;;31.10;47.10;;;;;;5029268;28;20026;-75
2021/06/16 09:31:37;;;;;;;5.00;2.55;;;31.40;47.80;;;;;;5012042;28;20024;-75
2021/06/16 09:34:15;;;;;;;4.70;2.40;;;31.70;47.00;;;;;;5011393;28;20549;-75
2021/06/16 09:37:04;;;;;;;6.70;2.63;;;32.40;48.60;;;;;;5029184;28;20386;-75
2021/06/16 09:39:31;;;;;;;4.25;2.40;;;32.70;45.50;;;;;;5029439;28;20564;-75
2021/06/16 09:42:14;;;;;;;4.13;2.20;;;33.20;43.80;;;;;;5011440;28;20520;-76
2021/06/16 09:44:50;;;;;;;4.60;2.88;;;33.60;42.30;;;;;;5011334;28;20044;-76
2021/06/16 09:47:20;;;;;;;3.65;2.38;;;34.30;41.50;;;;;;5031840;28;20079;-75
2021/06/16 09:50:00;;;;;;;3.05;2.63;;;34.70;39.70;;;;;;5015189;28;20036;-76
2021/06/16 09:52:43;;;;;;;4.45;2.28;;;35.80;37.80;;;;;;5032745;28;20033;-76
2021/06/16 09:55:12;;;;;;;3.22;2.10;;;38.80;32.80;;;;;;5033083;28;20471;-76
2021/06/16 09:57:38;;;;;;;2.72;2.22;;;40.60;30.70;;;;;;5033075;28;20030;-76
2021/06/16 10:00:09;;;;;;;5.68;2.40;;;42.20;28.20;;;;;;5032971;28;20034;-76
2021/06/16 10:02:35;;;;;;;4.40;2.47;;;43.70;27.70;;;;;;5014885;28;20036;-75
2021/06/16 10:05:03;;;;;;;6.07;2.78;;;43.00;26.40;;;;;;5014912;28;20371;-76
2021/06/16 10:07:30;;;;;;;4.38;2.50;;;43.50;26.00;;;;;;5032591;28;20021;-76
2021/06/16 10:09:57;;;;;;;3.58;2.45;;;43.90;26.40;;;;;;5032542;28;20025;-75
2021/06/16 10:12:25;;;;;;;3.83;2.45;;;44.20;25.30;;;;;;5032371;28;20021;-76
2021/06/16 10:14:51;;;;;;;3.97;2.50;;;45.50;25.10;;;;;;5032632;28;20437;-76
2021/06/16 10:17:17;;;;;;;3.25;2.30;;;46.40;24.40;;;;;;5032340;28;20100;-76
2021/06/16 10:19:44;;;;;;;3.40;2.35;;;47.40;23.80;;;;;;5032932;28;20017;-76
2021/06/16 10:22:11;;;;;;;3.42;2.80;;;47.80;23.30;;;;;;5013823;28;20037;-78
2021/06/16 10:24:38;;;;;;;3.53;2.33;;;47.10;23.00;;;;;;5014486;28;20065;-76
2021/06/16 10:27:06;;;;;;;4.03;2.50;;;47.50;22.80;;;;;;5032530;28;20025;-76
2021/06/16 10:29:36;;;;;;;3.88;2.67;;;47.50;22.60;;;;;;5014352;28;20029;-76
2021/06/16 10:32:07;;;;;;;3.20;2.53;;;48.10;23.80;;;;;;5032181;28;20433;-76
2021/06/16 10:34:51;;;;;;;3.93;2.20;;;48.40;22.40;;;;;;5014116;28;20029;-76
2021/06/16 10:37:34;;;;;;;5.50;2.35;;;48.40;22.10;;;;;;5032303;28;20052;-76
2021/06/16 10:40:22;;;;;;;3.92;2.35;;;49.20;21.60;;;;;;5014194;28;20509;-76
2021/06/16 10:43:02;;;;;;;2.65;2.17;;;48.00;21.70;;;;;;5032183;28;20018;-76
2021/06/16 10:45:34;;;;;;;3.23;2.53;;;48.20;21.90;;;;;;5014294;28;20029;-76
2021/06/16 10:48:04;;;;;;;6.57;2.88;;;47.30;22.40;;;;;;5032228;28;20151;-76
2021/06/16 10:50:45;;;;;;;2.85;2.40;;;46.50;22.30;;;;;;5032386;28;20402;-77
2021/06/16 10:53:11;;;;;;;3.55;2.15;;;46.30;22.90;;;;;;5014417;28;20141;-76
2021/06/16 10:55:52;;;;;;;4.05;2.60;;;47.50;22.00;;;;;;5031679;28;20044;-76
2021/06/16 10:58:19;;;;;;;4.53;3.05;;;47.50;22.20;;;;;;5013742;28;20032;-77
2021/06/16 11:01:07;;;;;;;4.07;2.25;;;46.30;21.80;;;;;;5014183;28;20400;-76
2021/06/16 11:03:54;;;;;;;5.07;2.38;;;47.50;22.80;;;;;;5031725;28;20097;-77
2021/06/16 11:06:32;;;;;;;5.05;2.60;;;47.30;21.90;;;;;;5013955;28;20125;-76
2021/06/16 11:09:18;;;;;;;2.40;2.15;;;46.80;22.50;;;;;;5031827;28;20097;-76
2021/06/16 11:11:47;;;;;;;3.13;2.83;;;46.30;22.50;;;;;;5031258;28;20038;-76
2021/06/16 11:14:39;;;;;;;3.05;2.58;;;45.80;23.20;;;;;;5023519;28;20026;-76
2021/06/16 11:17:06;;;;;;;3.78;2.20;;;47.40;22.50;;;;;;5043682;28;20385;-76
2021/06/16 11:19:35;;;;;;;2.90;2.50;;;47.10;22.60;;;;;;5045726;28;20021;-76
2021/06/16 11:22:04;;;;;;;3.17;2.65;;;48.70;22.40;;;;;;5023736;28;20128;-76
2021/06/16 11:25:07;;;;;;;2.90;2.38;;;48.80;22.70;;;;;;5039219;28;20401;-76
2021/06/16 11:27:52;;;;;;;3.65;2.30;;;49.50;22.00;;;;;;5035447;28;20017;-76
2021/06/16 11:30:36;;;;;;;3.92;2.70;;;49.70;21.60;;;;;;5033392;28;20021;-76
2021/06/16 11:33:20;;;;;;;3.78;2.45;;;49.00;22.10;;;;;;5014043;28;20071;-76
2021/06/16 11:36:00;;;;;;;4.15;2.70;;;49.60;21.70;;;;;;5013552;28;20116;-76
2021/06/16 11:38:29;;;;;;;3.97;2.55;;;47.10;21.80;;;;;;5031201;28;20018;-76
2021/06/16 11:41:10;;;;;;;5.25;2.53;;;47.00;22.10;;;;;;5031494;28;20032;-76
2021/06/16 11:44:00;;;;;;;4.93;2.55;;;46.80;23.60;;;;;;5013202;28;20049;-76
2021/06/16 11:46:27;;;;;;;4.45;2.60;;;47.40;22.60;;;;;;5031414;28;20033;-76
2021/06/16 11:49:10;;;;;;;2.83;2.30;;;47.50;22.90;;;;;;5014170;28;20044;-77
2021/06/16 11:51:44;;;;;;;3.10;2.47;;;47.40;22.50;;;;;;5013030;28;20486;-76
2021/06/16 11:54:39;;;;;;;4.50;2.80;;;47.80;22.30;;;;;;5031036;28;20029;-76
2021/06/16 11:57:09;;;;;;;6.10;2.92;;;48.30;21.90;;;;;;5013032;28;20022;-76
2021/06/16 11:59:35;;;;;;;3.83;2.58;;;48.20;21.30;;;;;;5012698;28;20060;-76
2021/06/16 12:02:12;;;;;;;4.70;3.22;;;48.30;22.00;;;;;;5012848;28;20051;-76
2021/06/16 12:04:45;;;;;;;4.10;2.50;;;46.40;22.30;;;;;;5012791;28;20029;-77
2021/06/16 12:07:10;;;;;;;3.45;2.40;;;47.20;22.00;;;;;;5030404;28;20021;-77
2021/06/16 12:09:50;;;;;;;7.05;2.20;;;47.60;21.50;;;;;;5011996;28;20029;-76
2021/06/16 12:12:16;;;;;;;2.63;2.17;;;47.80;21.70;;;;;;5012419;28;20482;-76
2021/06/16 12:14:41;;;;;;;5.20;2.53;;;46.90;21.70;;;;;;5030176;28;20037;-76
2021/06/16 12:17:07;;;;;;;2.97;2.47;;;47.20;22.70;;;;;;5012502;28;20395;-76
2021/06/16 12:19:35;;;;;;;4.15;2.22;;;47.90;22.50;;;;;;5012372;28;20074;-76
2021/06/16 12:22:07;;;;;;;2.40;2.20;;;47.90;22.40;;;;;;5013061;28;20036;-76
2021/06/16 12:24:35;;;;;;;3.90;2.78;;;48.00;23.00;;;;;;5029932;28;20474;-76
2021/06/16 12:27:14;;;;;;;3.85;2.50;;;48.30;22.10;;;;;;5012289;28;20022;-76
2021/06/16 12:29:49;;;;;;;4.75;2.30;;;48.80;22.20;;;;;;5030170;28;20483;-76
2021/06/16 12:32:25;;;;;;;6.20;2.58;;;48.60;22.10;;;;;;5011970;28;20026;-77
2021/06/16 12:35:28;;;;;;;5.88;3.10;;;49.00;22.20;;;;;;5029915;28;20104;-76
2021/06/16 12:37:56;;;;;;;3.10;2.80;;;47.10;22.50;;;;;;5029949;28;20446;-76
2021/06/16 12:40:33;;;;;;;4.22;2.55;;;45.70;23.20;;;;;;5029801;28;20026;-76
2021/06/16 12:43:00;;;;;;;4.95;2.20;;;45.90;23.60;;;;;;5012002;28;20021;-76
2021/06/16 12:45:36;;;;;;;3.90;2.45;;;46.40;23.40;;;;;;5029656;28;20028;-77
2021/06/16 12:48:11;;;;;;;3.63;2.40;;;45.30;23.70;;;;;;5011931;28;20017;-76
2021/06/16 12:50:38;;;;;;;2.63;2.40;;;44.80;23.40;;;;;;5029648;28;20059;-76